createdAt,value
2022-10-04T00:01:51.375Z,80.83
2022-10-04T00:04:23.583Z,81.53
2022-10-04T00:07:03.009Z,81.29
2022-10-04T00:09:37.631Z,81.50
2022-10-04T00:12:06.787Z,81.32
2022-10-04T00:14:39.852Z,81.37
2022-10-04T00:17:14.201Z,82.26
2022-10-04T00:19:47.233Z,82.39
2022-10-04T00:22:29.800Z,82.54
2022-10-04T00:25:02.676Z,82.82
2022-10-04T00:27:31.090Z,84.00
2022-10-04T00:30:02.457Z,83.65
2022-10-04T00:32:40.814Z,84.01
2022-10-04T00:35:27.454Z,84.25
2022-10-04T00:38:13.612Z,84.11
2022-10-04T00:41:00.240Z,84.33
2022-10-04T00:43:37.604Z,85.21
2022-10-04T00:46:18.897Z,84.91
2022-10-04T00:48:54.154Z,86.21
2022-10-04T00:51:32.389Z,87.53
2022-10-04T00:54:31.547Z,87.62
2022-10-04T00:57:08.416Z,87.03
2022-10-04T00:59:59.113Z,87.41
2022-10-04T01:02:54.062Z,88.03
2022-10-04T01:05:34.594Z,87.57
2022-10-04T01:08:13.623Z,87.88
2022-10-04T01:10:48.850Z,87.99
2022-10-04T01:13:21.294Z,87.57
2022-10-04T01:16:07.670Z,88.30
2022-10-04T01:18:36.558Z,88.39
2022-10-04T01:21:07.688Z,88.39
2022-10-04T01:23:37.879Z,88.75
2022-10-04T01:26:26.393Z,89.00
2022-10-04T01:28:59.046Z,89.50
2022-10-04T01:31:32.322Z,89.72
2022-10-04T01:34:02.021Z,89.80
2022-10-04T01:36:30.105Z,89.47
2022-10-04T01:38:58.360Z,89.81
2022-10-04T01:42:11.343Z,89.61
2022-10-04T01:44:46.488Z,90.13
2022-10-04T01:47:21.646Z,90.51
2022-10-04T01:49:52.737Z,89.97
2022-10-04T01:52:40.071Z,90.76
2022-10-04T01:55:23.480Z,91.15
2022-10-04T01:58:01.140Z,90.83
2022-10-04T02:00:54.072Z,90.88
2022-10-04T02:03:29.809Z,90.80
2022-10-04T02:06:02.556Z,91.08
2022-10-04T02:08:34.712Z,91.04
2022-10-04T02:11:05.773Z,91.30
2022-10-04T02:13:38.575Z,91.65
2022-10-04T02:16:12.046Z,91.89
2022-10-04T02:18:45.868Z,92.01
2022-10-04T02:21:16.285Z,92.61
2022-10-04T02:23:45.924Z,92.77
2022-10-04T02:26:14.073Z,92.59
2022-10-04T02:28:42.300Z,92.63
2022-10-04T02:31:30.009Z,92.40
2022-10-04T02:34:00.298Z,92.63
2022-10-04T02:36:29.859Z,92.47
2022-10-04T02:39:15.991Z,92.34
2022-10-04T02:41:50.297Z,92.70
2022-10-04T02:44:27.057Z,92.53
2022-10-04T02:47:14.511Z,92.54
2022-10-04T02:50:06.233Z,92.53
2022-10-04T02:52:42.318Z,92.45
2022-10-04T02:55:46.687Z,92.99
2022-10-04T02:58:18.443Z,93.18
2022-10-04T03:00:52.301Z,93.25
2022-10-04T03:03:30.737Z,93.70
2022-10-04T03:06:08.801Z,93.37
2022-10-04T03:08:46.931Z,93.33
2022-10-04T03:11:16.332Z,93.47
2022-10-04T03:13:52.315Z,93.37
2022-10-04T03:16:21.697Z,93.97
2022-10-04T03:18:51.688Z,93.74
2022-10-04T03:21:21.790Z,93.90
2022-10-04T03:23:52.282Z,93.63
2022-10-04T03:26:29.116Z,94.05
2022-10-04T03:28:58.787Z,93.61
2022-10-04T03:31:28.721Z,93.41
2022-10-04T03:33:58.495Z,93.96
2022-10-04T03:36:27.600Z,94.33
2022-10-04T03:38:57.430Z,94.10
2022-10-04T03:41:26.274Z,94.07
2022-10-04T03:43:56.061Z,94.31
2022-10-04T03:46:25.469Z,94.39
2022-10-04T03:48:55.904Z,95.17
2022-10-04T03:51:25.929Z,95.22
2022-10-04T03:53:57.866Z,94.99
2022-10-04T03:56:27.456Z,95.70
2022-10-04T03:58:56.539Z,95.64
2022-10-04T04:01:35.097Z,95.63
2022-10-04T04:04:22.226Z,95.50
2022-10-04T04:06:53.545Z,95.70
2022-10-04T04:09:31.274Z,96.41
2022-10-04T04:12:13.848Z,96.00
2022-10-04T04:14:42.757Z,96.07
2022-10-04T04:17:27.491Z,96.64
2022-10-04T04:20:03.426Z,96.34
2022-10-04T04:22:36.349Z,97.25
2022-10-04T04:25:11.719Z,97.07
2022-10-04T04:27:42.157Z,97.75
2022-10-04T04:30:16.890Z,97.93
2022-10-04T04:32:52.721Z,97.63
2022-10-04T04:35:30.855Z,96.90
2022-10-04T04:38:19.570Z,95.92
2022-10-04T04:40:48.405Z,95.52
2022-10-04T04:43:20.284Z,95.35
2022-10-04T04:46:03.027Z,95.59
2022-10-04T04:48:37.384Z,95.44
2022-10-04T04:51:05.962Z,95.70
2022-10-04T04:53:34.705Z,96.07
2022-10-04T04:56:10.389Z,96.33
2022-10-04T04:58:43.703Z,96.59
2022-10-04T05:01:25.908Z,96.40
2022-10-04T05:04:14.014Z,96.57
2022-10-04T05:06:44.067Z,96.65
2022-10-04T05:09:28.726Z,96.64
2022-10-04T05:12:06.414Z,96.25
2022-10-04T05:14:39.674Z,95.93
2022-10-04T05:17:08.980Z,96.69
2022-10-04T05:19:40.256Z,96.39
2022-10-04T05:22:17.343Z,96.00
2022-10-04T05:24:51.714Z,96.22
2022-10-04T05:27:40.202Z,96.38
2022-10-04T05:30:41.886Z,95.56
2022-10-04T05:33:45.236Z,95.12
2022-10-04T05:36:46.722Z,95.06
2022-10-04T05:39:34.094Z,95.36
2022-10-04T05:42:12.435Z,95.92
2022-10-04T05:44:54.710Z,96.04
2022-10-04T05:47:27.733Z,95.46
2022-10-04T05:49:58.054Z,95.86
2022-10-04T05:52:40.056Z,96.31
2022-10-04T05:55:26.309Z,96.63
2022-10-04T05:58:18.255Z,95.58
2022-10-04T06:01:03.819Z,95.92
2022-10-04T06:03:32.233Z,95.20
2022-10-04T06:06:43.425Z,95.49
2022-10-04T06:09:18.121Z,95.51
2022-10-04T06:12:19.915Z,94.54
2022-10-04T06:15:05.417Z,93.85
2022-10-04T06:18:15.486Z,94.42
2022-10-04T06:20:46.486Z,93.50
2022-10-04T06:23:18.756Z,93.62
2022-10-04T06:25:56.561Z,93.87
2022-10-04T06:28:31.178Z,93.53
2022-10-04T06:31:20.490Z,93.33
2022-10-04T06:34:07.544Z,94.97
2022-10-04T06:36:57.055Z,93.86
2022-10-04T06:39:52.864Z,92.66
2022-10-04T06:42:38.396Z,92.59
2022-10-04T06:45:30.912Z,91.95
2022-10-04T06:48:44.980Z,92.18
2022-10-04T06:51:43.121Z,91.01
2022-10-04T06:54:39.759Z,92.27
2022-10-04T06:57:39.015Z,90.65
2022-10-04T07:00:26.210Z,90.98
2022-10-04T07:03:02.083Z,90.07
2022-10-04T07:05:39.967Z,89.81
2022-10-04T07:08:13.848Z,89.95
2022-10-04T07:10:52.048Z,90.27
2022-10-04T07:13:33.235Z,90.62
2022-10-04T07:16:07.777Z,91.12
2022-10-04T07:18:45.955Z,89.98
2022-10-04T07:21:17.245Z,91.49
2022-10-04T07:23:48.380Z,90.70
2022-10-04T07:26:24.853Z,90.57
2022-10-04T07:29:16.367Z,90.21
2022-10-04T07:31:48.115Z,88.60
2022-10-04T07:34:31.581Z,87.55
2022-10-04T07:37:08.018Z,84.13
2022-10-04T07:39:45.872Z,80.57
2022-10-04T07:42:23.007Z,79.11
2022-10-04T07:45:42.167Z,78.81
2022-10-04T07:48:23.425Z,77.00
2022-10-04T07:51:09.536Z,74.90
2022-10-04T07:54:12.900Z,76.09
2022-10-04T07:56:54.547Z,77.71
2022-10-04T07:59:23.461Z,80.11
2022-10-04T08:02:19.591Z,79.19
2022-10-04T08:05:09.871Z,77.77
2022-10-04T08:08:26.351Z,79.51
2022-10-04T08:11:27.585Z,79.97
2022-10-04T08:14:19.355Z,79.66
2022-10-04T08:17:42.056Z,81.31
2022-10-04T08:20:34.887Z,82.13
2022-10-04T08:23:44.742Z,78.74
2022-10-04T08:26:32.850Z,77.43
2022-10-04T08:29:41.707Z,78.90
2022-10-04T08:32:20.319Z,80.37
2022-10-04T08:35:01.807Z,79.65
2022-10-04T08:37:53.784Z,79.25
2022-10-04T08:41:01.643Z,79.13
2022-10-04T08:43:56.928Z,78.13
2022-10-04T08:46:44.378Z,78.56
2022-10-04T08:49:33.732Z,76.94
2022-10-04T08:52:29.904Z,76.92
2022-10-04T08:55:20.983Z,76.49
2022-10-04T08:58:01.694Z,76.35
2022-10-04T09:00:49.020Z,75.72
2022-10-04T09:03:29.170Z,76.01
2022-10-04T09:06:01.322Z,75.09
2022-10-04T09:09:07.991Z,74.87
2022-10-04T09:11:42.206Z,75.90
2022-10-04T09:14:30.693Z,73.29
2022-10-04T09:17:34.374Z,73.11
2022-10-04T09:20:37.677Z,73.51
2022-10-04T09:23:20.879Z,71.30
2022-10-04T09:25:49.885Z,69.98
2022-10-04T09:28:45.369Z,68.46
2022-10-04T09:31:38.903Z,67.85
2022-10-04T09:34:37.079Z,68.01
2022-10-04T09:37:20.924Z,65.80
2022-10-04T09:40:13.333Z,64.36
2022-10-04T09:42:42.377Z,65.63
2022-10-04T09:45:36.160Z,63.89
2022-10-04T09:48:25.120Z,66.18
2022-10-04T09:51:24.854Z,68.48
2022-10-04T09:54:44.776Z,70.34
2022-10-04T09:57:40.293Z,71.37
2022-10-04T10:00:23.410Z,70.42
2022-10-04T10:03:15.753Z,67.46
2022-10-04T10:06:24.805Z,64.62
2022-10-04T10:09:18.694Z,64.62
2022-10-04T10:12:16.181Z,63.40
2022-10-04T10:15:23.297Z,64.09
2022-10-04T10:17:57.856Z,64.41
2022-10-04T10:20:54.875Z,65.95
2022-10-04T10:23:57.243Z,65.11
2022-10-04T10:26:49.781Z,63.66
2022-10-04T10:29:33.017Z,61.40
2022-10-04T10:32:22.409Z,62.12
2022-10-04T10:35:24.787Z,62.87
2022-10-04T10:38:22.993Z,59.06
2022-10-04T10:41:06.339Z,56.57
2022-10-04T10:43:59.266Z,57.66
2022-10-04T10:46:39.688Z,57.24
2022-10-04T10:49:22.423Z,56.39
2022-10-04T10:52:25.462Z,62.02
2022-10-04T10:55:22.655Z,64.30
2022-10-04T10:58:09.650Z,60.74
2022-10-04T11:01:02.113Z,57.04
2022-10-04T11:04:06.925Z,57.44
2022-10-04T11:07:14.072Z,58.34
2022-10-04T11:10:03.828Z,58.94
2022-10-04T11:12:50.527Z,60.48
2022-10-04T11:15:45.049Z,61.52
2022-10-04T11:18:22.012Z,61.49
2022-10-04T11:21:02.322Z,63.13
2022-10-04T11:23:52.574Z,62.32
2022-10-04T11:26:38.947Z,62.28
2022-10-04T11:29:25.235Z,60.93
2022-10-04T11:32:02.555Z,63.53
2022-10-04T11:34:51.418Z,61.07
2022-10-04T11:37:57.219Z,60.41
2022-10-04T11:40:48.522Z,60.66
2022-10-04T11:43:50.267Z,61.63
2022-10-04T11:46:40.264Z,60.43
2022-10-04T11:49:42.567Z,63.06
2022-10-04T11:52:38.716Z,63.19
2022-10-04T11:55:26.276Z,60.36
2022-10-04T11:58:18.191Z,61.45
2022-10-04T12:01:23.151Z,60.00
2022-10-04T12:03:51.738Z,60.10
2022-10-04T12:06:57.740Z,62.13
2022-10-04T12:09:31.905Z,60.92
2022-10-04T12:12:37.576Z,58.38
2022-10-04T12:15:45.077Z,57.26
2022-10-04T12:18:50.532Z,57.79
2022-10-04T12:21:36.757Z,60.52
2022-10-04T12:24:27.176Z,62.46
2022-10-04T12:27:24.950Z,60.54
2022-10-04T12:30:14.768Z,61.06
2022-10-04T12:33:11.289Z,60.71
2022-10-04T12:35:57.639Z,62.09
2022-10-04T12:38:38.665Z,61.33
2022-10-04T12:41:19.214Z,61.35
2022-10-04T12:43:56.805Z,62.84
2022-10-04T12:47:09.835Z,61.61
2022-10-04T12:49:54.964Z,62.17
2022-10-04T12:52:27.754Z,61.97
2022-10-04T12:54:59.199Z,65.56
2022-10-04T12:57:27.337Z,65.53
2022-10-04T13:00:03.904Z,64.38
2022-10-04T13:03:03.174Z,63.43
2022-10-04T13:05:46.963Z,65.25
2022-10-04T13:08:49.047Z,61.71
2022-10-04T13:11:32.965Z,59.58
2022-10-04T13:14:34.269Z,59.31
2022-10-04T13:17:35.205Z,57.31
2022-10-04T13:20:23.197Z,58.42
2022-10-04T13:23:14.835Z,57.11
2022-10-04T13:26:05.045Z,58.00
2022-10-04T13:29:03.011Z,57.38
2022-10-04T13:31:49.140Z,56.67
2022-10-04T13:34:37.265Z,56.88
2022-10-04T13:37:17.249Z,56.94
2022-10-04T13:40:21.473Z,56.48
2022-10-04T13:42:59.007Z,56.50
2022-10-04T13:46:12.113Z,56.81
2022-10-04T13:49:28.589Z,58.08
2022-10-04T13:52:36.382Z,58.58
2022-10-04T13:55:34.977Z,60.38
2022-10-04T13:58:34.471Z,61.12
2022-10-04T14:01:30.926Z,59.25
2022-10-04T14:04:11.206Z,61.03
2022-10-04T14:07:07.083Z,59.53
2022-10-04T14:09:54.208Z,61.10
2022-10-04T14:12:34.490Z,62.11
2022-10-04T14:15:19.653Z,61.40
2022-10-04T14:18:08.022Z,60.15
2022-10-04T14:21:01.495Z,64.41
2022-10-04T14:23:54.771Z,57.73
2022-10-04T14:26:57.039Z,57.85
2022-10-04T14:29:38.511Z,58.20
2022-10-04T14:32:37.143Z,60.98
2022-10-04T14:35:27.647Z,58.45
2022-10-04T14:38:01.739Z,60.89
2022-10-04T14:40:47.733Z,60.23
2022-10-04T14:43:53.202Z,60.03
2022-10-04T14:46:40.578Z,61.18
2022-10-04T14:49:27.195Z,60.29
2022-10-04T14:52:14.553Z,61.25
2022-10-04T14:54:43.001Z,60.61
2022-10-04T14:57:22.858Z,59.79
2022-10-04T15:00:04.343Z,60.89
2022-10-04T15:02:33.153Z,60.61
2022-10-04T15:05:32.443Z,61.75
2022-10-04T15:08:22.393Z,61.68
2022-10-04T15:11:33.594Z,61.76
2022-10-04T15:14:05.147Z,61.73
2022-10-04T15:17:06.134Z,62.30
2022-10-04T15:19:52.673Z,62.66
2022-10-04T15:22:30.946Z,62.07
2022-10-04T15:24:59.491Z,63.04
2022-10-04T15:27:33.936Z,62.41
2022-10-04T15:30:51.910Z,62.78
2022-10-04T15:33:33.555Z,64.91
2022-10-04T15:36:01.755Z,64.22
2022-10-04T15:38:38.527Z,65.74
2022-10-04T15:41:27.331Z,64.71
2022-10-04T15:44:12.429Z,65.65
2022-10-04T15:47:14.856Z,66.08
2022-10-04T15:49:57.318Z,66.63
2022-10-04T15:52:58.069Z,66.42
2022-10-04T15:55:51.962Z,66.94
2022-10-04T15:58:32.169Z,67.09
2022-10-04T16:01:49.506Z,68.09
2022-10-04T16:04:36.947Z,69.07
2022-10-04T16:07:07.727Z,68.80
2022-10-04T16:10:12.209Z,69.62
2022-10-04T16:13:13.352Z,70.49
2022-10-04T16:15:49.481Z,71.03
2022-10-04T16:18:55.071Z,72.82
2022-10-04T16:21:51.817Z,72.25
2022-10-04T16:24:19.932Z,72.83
2022-10-04T16:26:51.443Z,72.85
2022-10-04T16:29:26.972Z,72.73
2022-10-04T16:32:14.309Z,72.18
2022-10-04T16:35:03.534Z,72.46
2022-10-04T16:37:31.905Z,72.90
2022-10-04T16:40:38.434Z,74.86
2022-10-04T16:43:14.147Z,75.10
2022-10-04T16:45:43.171Z,74.34
2022-10-04T16:48:35.091Z,74.96
2022-10-04T16:51:05.977Z,74.92
2022-10-04T16:53:49.289Z,73.83
2022-10-04T16:56:24.959Z,73.14
2022-10-04T16:59:11.186Z,72.82
2022-10-04T17:01:58.518Z,72.77
2022-10-04T17:04:39.632Z,73.30
2022-10-04T17:07:12.236Z,72.83
2022-10-04T17:10:05.986Z,72.35
2022-10-04T17:13:05.681Z,72.12
2022-10-04T17:15:47.217Z,72.40
2022-10-04T17:19:09.451Z,74.54
2022-10-04T17:22:06.993Z,75.90
2022-10-04T17:24:35.043Z,76.49
2022-10-04T17:27:13.828Z,78.39
2022-10-04T17:30:19.075Z,80.32
2022-10-04T17:33:24.182Z,80.84
2022-10-04T17:36:16.972Z,81.81
2022-10-04T17:39:14.290Z,82.06
2022-10-04T17:42:33.665Z,82.48
2022-10-04T17:45:20.972Z,82.22
2022-10-04T17:48:26.132Z,83.47
2022-10-04T17:51:47.182Z,84.51
2022-10-04T17:54:49.520Z,84.91
2022-10-04T17:57:25.424Z,86.12
2022-10-04T18:00:23.982Z,86.29
2022-10-04T18:03:04.758Z,86.43
2022-10-04T18:05:47.809Z,85.75
2022-10-04T18:08:44.224Z,86.69
2022-10-04T18:11:27.633Z,83.19
2022-10-04T18:14:04.832Z,80.02
2022-10-04T18:16:49.507Z,77.39
2022-10-04T18:19:39.723Z,75.83
2022-10-04T18:22:28.614Z,75.93
2022-10-04T18:25:24.032Z,75.84
2022-10-04T18:28:09.852Z,77.27
2022-10-04T18:30:58.990Z,74.61
2022-10-04T18:33:33.415Z,74.51
2022-10-04T18:36:19.413Z,77.56
2022-10-04T18:39:07.276Z,77.44
2022-10-04T18:41:54.226Z,76.02
2022-10-04T18:44:30.000Z,76.03
2022-10-04T18:47:02.960Z,74.33
2022-10-04T18:49:47.671Z,74.61
2022-10-04T18:52:41.062Z,73.43
2022-10-04T18:55:12.709Z,72.54
2022-10-04T18:58:12.889Z,72.72
2022-10-04T19:01:19.406Z,72.44
2022-10-04T19:03:57.408Z,71.46
2022-10-04T19:06:33.280Z,71.95
2022-10-04T19:09:18.012Z,72.43
2022-10-04T19:12:00.294Z,72.58
2022-10-04T19:14:49.596Z,72.75
2022-10-04T19:17:33.044Z,72.10
2022-10-04T19:20:18.897Z,72.41
2022-10-04T19:23:15.641Z,73.24
2022-10-04T19:26:17.486Z,73.49
2022-10-04T19:28:39.621Z,73.21
2022-10-04T19:31:20.283Z,72.27
2022-10-04T19:33:48.512Z,72.11
2022-10-04T19:36:46.371Z,72.85
2022-10-04T19:39:38.036Z,72.25
2022-10-04T19:42:41.163Z,73.41
2022-10-04T19:45:26.178Z,72.22
2022-10-04T19:48:01.676Z,72.48
2022-10-04T19:50:45.092Z,72.83
2022-10-04T19:53:16.401Z,76.85
2022-10-04T19:55:59.216Z,79.55
2022-10-04T19:58:27.564Z,79.87
2022-10-04T20:00:55.937Z,78.40
2022-10-04T20:03:24.824Z,77.87
2022-10-04T20:05:57.429Z,76.91
2022-10-04T20:09:01.504Z,77.07
2022-10-04T20:11:48.755Z,78.93
2022-10-04T20:14:17.138Z,80.90
2022-10-04T20:16:53.209Z,81.82
2022-10-04T20:19:27.909Z,82.79
2022-10-04T20:22:18.435Z,82.51
2022-10-04T20:24:47.167Z,83.27
2022-10-04T20:27:27.964Z,83.31
2022-10-04T20:29:57.162Z,82.94
2022-10-04T20:32:34.031Z,82.53
2022-10-04T20:35:09.150Z,83.38
2022-10-04T20:38:13.493Z,84.74
2022-10-04T20:40:45.859Z,84.05
2022-10-04T20:43:13.873Z,83.33
2022-10-04T20:45:51.763Z,84.34
2022-10-04T20:48:25.345Z,83.51
2022-10-04T20:50:55.238Z,83.66
2022-10-04T20:53:31.495Z,84.49
2022-10-04T20:56:20.669Z,84.38
2022-10-04T20:59:02.735Z,83.37
2022-10-04T21:01:36.236Z,84.40
2022-10-04T21:04:42.820Z,85.12
2022-10-04T21:07:23.329Z,85.42
2022-10-04T21:09:53.303Z,86.50
2022-10-04T21:12:32.487Z,87.10
2022-10-04T21:15:21.152Z,87.55
2022-10-04T21:18:07.764Z,87.81
2022-10-04T21:20:56.235Z,89.09
2022-10-04T21:23:30.436Z,89.47
2022-10-04T21:26:24.061Z,90.56
2022-10-04T21:28:59.161Z,90.51
2022-10-04T21:31:27.372Z,90.51
2022-10-04T21:33:55.796Z,91.16
2022-10-04T21:36:24.227Z,91.78
2022-10-04T21:38:56.827Z,91.15
2022-10-04T21:41:25.426Z,91.16
2022-10-04T21:43:53.461Z,90.54
2022-10-04T21:46:21.592Z,92.42
2022-10-04T21:48:50.310Z,92.73
2022-10-04T21:51:18.387Z,92.66
2022-10-04T21:53:47.005Z,91.71
2022-10-04T21:56:15.665Z,92.01
2022-10-04T21:58:43.744Z,92.13
2022-10-04T22:01:11.856Z,92.23
2022-10-04T22:03:40.464Z,93.59
2022-10-04T22:06:08.524Z,92.47
2022-10-04T22:08:36.553Z,91.67
2022-10-04T22:11:05.442Z,91.00
2022-10-04T22:13:33.528Z,90.21
2022-10-04T22:16:02.718Z,89.54
2022-10-04T22:18:32.331Z,90.25
2022-10-04T22:21:00.991Z,90.90
2022-10-04T22:23:33.646Z,90.77
2022-10-04T22:26:02.831Z,90.77
2022-10-04T22:28:33.522Z,90.68
2022-10-04T22:31:02.026Z,90.49
2022-10-04T22:33:38.533Z,90.45
2022-10-04T22:36:21.227Z,90.21
2022-10-04T22:39:15.117Z,90.59
2022-10-04T22:41:52.285Z,90.59
2022-10-04T22:44:20.466Z,90.61
2022-10-04T22:47:00.162Z,90.50
2022-10-04T22:49:34.892Z,90.53
2022-10-04T22:52:06.468Z,90.65
2022-10-04T22:54:35.683Z,90.44
2022-10-04T22:57:04.048Z,90.42
2022-10-04T22:59:40.408Z,91.22
2022-10-04T23:02:24.035Z,90.85
2022-10-04T23:04:55.320Z,90.65
2022-10-04T23:07:24.023Z,90.25
2022-10-04T23:09:54.979Z,90.19
2022-10-04T23:12:23.652Z,90.63
2022-10-04T23:14:51.700Z,89.61
2022-10-04T23:17:24.839Z,89.65
2022-10-04T23:19:57.028Z,89.45
2022-10-04T23:22:30.503Z,89.85
2022-10-04T23:24:59.238Z,88.22
2022-10-04T23:27:28.233Z,88.52
2022-10-04T23:30:02.889Z,89.01
2022-10-04T23:32:31.867Z,89.17
2022-10-04T23:35:04.080Z,90.47
2022-10-04T23:37:32.811Z,90.66
2022-10-04T23:40:01.963Z,91.49
2022-10-04T23:42:33.519Z,91.82
2022-10-04T23:45:02.441Z,93.57
2022-10-04T23:47:36.242Z,93.88
2022-10-04T23:50:45.518Z,94.21
2022-10-04T23:53:26.561Z,94.78
2022-10-04T23:55:56.935Z,95.44
2022-10-04T23:58:30.168Z,96.15
